Terminal Aerodrome Forecast
Issued by NWS

Home | Current Version | Previous Version | Text Only | Print | Product List | Glossary Off
Versions: 1 2 3 4 5 6 7 8 9 10 11 12 13 14 15 16 17 18 19

432
FTUS43 KICT 062333
TAFRSL
TAF
KRSL 062333Z 0700/0724 VRB03KT P6SM OVC150
     FM070200 VRB03KT P6SM OVC080
     FM070800 07007KT P6SM -SN VCSH OVC080
     FM071200 05011KT 5SM -SN BR SCT035 OVC060
     FM071400 03012KT 3SM -SN BR OVC025
     FM071800 02013KT P6SM OVC020=

USA.gov is the U.S. government's official web portal to all federal, state and local government web resources and services.